Time;durP1;ratioP1;P1;durP2;ratioP2;P2;SDS_P1;SDS_P2;PMS_P1;PMS_P2;Temp;Humidity;BMP_temperature;BMP_pressure;BME280_temperature;BME280_humidity;BME280_pressure;Samples;Min_cycle;Max_cycle;Signal;HPM_P1;HPM_P2
2023/10/31 00:02:01;;;;;;;3.83;2.47;;;;;;;;;;5039630;28;20065;-57
2023/10/31 00:04:27;;;;;;;4.68;2.63;;;;;;;;;;5034092;28;20279;-59
2023/10/31 00:06:52;;;;;;;5.82;2.97;;;;;;;;;;5038531;28;20029;-59
2023/10/31 00:09:17;;;;;;;4.20;2.50;;;;;;;;;;5016142;28;20051;-58
2023/10/31 00:11:44;;;;;;;4.37;2.83;;;;;;;;;;5037621;28;20477;-58
2023/10/31 00:14:09;;;;;;;4.00;2.53;;;;;;;;;;5042958;28;20289;-58
2023/10/31 00:16:34;;;;;;;4.40;2.60;;;;;;;;;;5043353;28;20037;-60
2023/10/31 00:18:59;;;;;;;5.07;2.63;;;;;;;;;;5042637;28;20334;-60
2023/10/31 00:21:25;;;;;;;4.13;2.70;;;;;;;;;;5042365;28;20811;-60
2023/10/31 00:23:50;;;;;;;4.00;2.50;;;;;;;;;;5042550;28;20725;-61
2023/10/31 00:26:15;;;;;;;5.57;2.67;;;;;;;;;;5042907;28;20296;-59
2023/10/31 00:28:40;;;;;;;5.68;3.00;;;;;;;;;;5042865;28;20279;-59
2023/10/31 00:31:07;;;;;;;5.43;2.67;;;;;;;;;;5042812;28;20040;-60
2023/10/31 00:33:33;;;;;;;5.05;2.75;;;;;;;;;;5042481;28;20080;-59
2023/10/31 00:35:58;;;;;;;4.68;2.78;;;;;;;;;;5042963;28;20528;-59
2023/10/31 00:38:23;;;;;;;4.93;2.33;;;;;;;;;;5042560;28;20064;-60
2023/10/31 00:40:48;;;;;;;5.63;2.97;;;;;;;;;;5042070;28;20720;-60
2023/10/31 00:43:14;;;;;;;5.90;2.50;;;;;;;;;;5042616;28;20033;-57
2023/10/31 00:45:39;;;;;;;4.07;2.53;;;;;;;;;;5041697;28;20806;-57
2023/10/31 00:48:04;;;;;;;4.80;2.63;;;;;;;;;;5042421;28;20383;-57
2023/10/31 00:50:29;;;;;;;5.07;2.35;;;;;;;;;;5023704;28;20329;-58
2023/10/31 00:52:55;;;;;;;3.85;2.60;;;;;;;;;;5025081;28;20045;-59
2023/10/31 00:55:20;;;;;;;4.57;2.53;;;;;;;;;;5041550;28;20513;-57
2023/10/31 00:57:45;;;;;;;5.40;2.73;;;;;;;;;;5041930;28;20279;-58
2023/10/31 01:00:11;;;;;;;3.43;2.07;;;;;;;;;;5042227;28;20056;-57
2023/10/31 01:02:36;;;;;;;4.45;2.38;;;;;;;;;;5041822;28;20287;-60
2023/10/31 01:05:01;;;;;;;5.20;2.45;;;;;;;;;;5024348;28;20453;-60
2023/10/31 01:07:26;;;;;;;4.13;2.53;;;;;;;;;;5041403;28;20067;-60
2023/10/31 01:09:52;;;;;;;5.77;2.63;;;;;;;;;;5024649;28;20275;-59
2023/10/31 01:12:17;;;;;;;5.97;2.73;;;;;;;;;;5039922;28;20758;-59
2023/10/31 01:14:42;;;;;;;5.60;2.60;;;;;;;;;;5040889;28;20398;-57
2023/10/31 01:17:07;;;;;;;4.30;2.47;;;;;;;;;;5038618;28;20451;-61
2023/10/31 01:19:32;;;;;;;5.88;2.55;;;;;;;;;;5040759;28;20312;-58
2023/10/31 01:21:58;;;;;;;4.07;2.40;;;;;;;;;;5046860;28;20615;-58
2023/10/31 01:24:23;;;;;;;5.10;2.67;;;;;;;;;;5044117;28;20037;-57
2023/10/31 01:26:49;;;;;;;5.85;2.47;;;;;;;;;;5043643;28;20029;-58
2023/10/31 01:29:14;;;;;;;6.37;2.60;;;;;;;;;;5046357;28;20179;-59
2023/10/31 01:31:40;;;;;;;4.10;2.50;;;;;;;;;;5043780;28;20125;-57
2023/10/31 01:34:06;;;;;;;5.88;2.50;;;;;;;;;;5045627;28;20731;-57
2023/10/31 01:36:31;;;;;;;4.93;2.50;;;;;;;;;;5045584;28;20041;-58
2023/10/31 01:38:56;;;;;;;4.47;2.37;;;;;;;;;;5045397;28;20048;-59
2023/10/31 01:41:21;;;;;;;5.47;2.73;;;;;;;;;;5046050;28;20275;-59
2023/10/31 01:43:47;;;;;;;5.33;2.77;;;;;;;;;;5045067;28;20025;-61
2023/10/31 01:46:12;;;;;;;3.97;2.33;;;;;;;;;;5044822;28;20310;-58
2023/10/31 01:48:37;;;;;;;5.20;2.57;;;;;;;;;;5043917;28;20103;-59
2023/10/31 01:51:04;;;;;;;4.72;2.92;;;;;;;;;;5044453;28;20341;-57
2023/10/31 01:53:29;;;;;;;4.30;2.65;;;;;;;;;;5044573;28;20041;-58
2023/10/31 01:55:55;;;;;;;4.53;2.50;;;;;;;;;;5027525;28;20465;-58
2023/10/31 01:58:21;;;;;;;4.32;2.42;;;;;;;;;;5045695;28;20359;-57
2023/10/31 02:00:46;;;;;;;3.87;2.47;;;;;;;;;;5045444;28;20132;-59
2023/10/31 02:03:11;;;;;;;4.90;2.90;;;;;;;;;;5044844;28;20486;-60
2023/10/31 02:05:36;;;;;;;6.20;2.60;;;;;;;;;;5044284;28;20037;-60
2023/10/31 02:08:01;;;;;;;4.13;2.27;;;;;;;;;;5026955;28;20283;-60
2023/10/31 02:10:27;;;;;;;4.65;2.58;;;;;;;;;;5045699;28;20116;-57
2023/10/31 02:12:52;;;;;;;6.10;3.15;;;;;;;;;;5026903;28;20051;-59
2023/10/31 02:15:17;;;;;;;4.87;2.47;;;;;;;;;;5031247;28;20496;-60
2023/10/31 02:17:42;;;;;;;6.00;2.67;;;;;;;;;;5044890;28;20283;-60
2023/10/31 02:20:08;;;;;;;3.13;2.30;;;;;;;;;;5044692;28;20308;-58
2023/10/31 02:22:33;;;;;;;5.28;2.15;;;;;;;;;;5045097;28;20036;-58
2023/10/31 02:24:59;;;;;;;4.20;2.30;;;;;;;;;;5045038;28;20449;-60
2023/10/31 02:27:24;;;;;;;4.20;2.70;;;;;;;;;;5044270;28;20429;-59
2023/10/31 02:29:49;;;;;;;3.97;2.37;;;;;;;;;;5045521;28;20098;-59
2023/10/31 02:32:14;;;;;;;4.50;2.60;;;;;;;;;;5045114;28;20029;-59
2023/10/31 02:34:39;;;;;;;4.43;2.37;;;;;;;;;;5031638;28;20291;-57
2023/10/31 02:37:05;;;;;;;4.63;2.30;;;;;;;;;;5044061;28;20279;-59
2023/10/31 02:39:30;;;;;;;4.78;2.88;;;;;;;;;;5044367;28;20049;-57
2023/10/31 02:41:56;;;;;;;5.67;2.97;;;;;;;;;;5044678;28;20090;-58
2023/10/31 02:44:21;;;;;;;3.53;2.40;;;;;;;;;;5031508;28;20413;-57
2023/10/31 02:46:46;;;;;;;5.00;2.50;;;;;;;;;;5045114;28;20655;-59
2023/10/31 02:49:11;;;;;;;4.33;2.60;;;;;;;;;;5044875;28;20037;-59
2023/10/31 02:51:37;;;;;;;4.77;2.47;;;;;;;;;;5026944;28;20700;-62
2023/10/31 02:54:02;;;;;;;4.43;2.40;;;;;;;;;;5024819;28;20315;-59
2023/10/31 02:56:27;;;;;;;4.57;2.47;;;;;;;;;;5011979;28;20292;-60
2023/10/31 02:58:52;;;;;;;4.57;2.43;;;;;;;;;;5024420;28;20057;-59
2023/10/31 03:01:19;;;;;;;4.50;2.50;;;;;;;;;;5024587;28;20045;-59
2023/10/31 03:03:45;;;;;;;4.20;2.47;;;;;;;;;;5010779;28;20426;-58
2023/10/31 03:06:10;;;;;;;4.10;2.30;;;;;;;;;;5041878;28;20044;-58
2023/10/31 03:08:35;;;;;;;5.45;2.40;;;;;;;;;;5040350;28;20142;-57
2023/10/31 03:11:00;;;;;;;3.53;2.60;;;;;;;;;;5032991;28;20041;-58
2023/10/31 03:13:26;;;;;;;4.63;2.23;;;;;;;;;;5041591;28;20276;-58
2023/10/31 03:15:51;;;;;;;3.80;2.37;;;;;;;;;;5044634;28;20041;-58
2023/10/31 03:18:16;;;;;;;4.13;2.30;;;;;;;;;;5043434;28;20283;-59
2023/10/31 03:20:43;;;;;;;4.45;2.28;;;;;;;;;;5044429;28;20393;-58
2023/10/31 03:23:08;;;;;;;4.15;2.30;;;;;;;;;;5043083;28;20560;-60
2023/10/31 03:25:34;;;;;;;4.97;2.40;;;;;;;;;;5044104;28;20102;-60
2023/10/31 03:27:59;;;;;;;4.40;2.43;;;;;;;;;;5042800;28;20112;-60
2023/10/31 03:30:24;;;;;;;8.02;2.60;;;;;;;;;;5043787;28;20287;-58
2023/10/31 03:32:49;;;;;;;4.38;2.58;;;;;;;;;;5043734;28;20572;-58
2023/10/31 03:35:15;;;;;;;4.03;2.40;;;;;;;;;;5043681;28;20036;-60
2023/10/31 03:37:41;;;;;;;4.83;2.73;;;;;;;;;;5025375;28;20049;-57
2023/10/31 03:40:08;;;;;;;4.18;2.40;;;;;;;;;;5042888;28;20343;-60
2023/10/31 03:42:33;;;;;;;4.00;2.35;;;;;;;;;;5025595;28;20079;-59
2023/10/31 03:44:58;;;;;;;4.43;2.40;;;;;;;;;;5043461;28;20033;-58
2023/10/31 03:47:23;;;;;;;5.10;2.70;;;;;;;;;;5041819;28;20085;-58
2023/10/31 03:49:48;;;;;;;4.70;2.53;;;;;;;;;;5026010;28;20968;-58
2023/10/31 03:52:14;;;;;;;6.87;2.90;;;;;;;;;;5043345;28;20665;-60
2023/10/31 03:54:39;;;;;;;3.70;2.30;;;;;;;;;;5043324;28;20445;-59
2023/10/31 03:57:04;;;;;;;3.80;2.70;;;;;;;;;;5042497;28;20086;-60
2023/10/31 03:59:30;;;;;;;5.07;2.65;;;;;;;;;;5042380;28;20750;-60
2023/10/31 04:01:55;;;;;;;3.77;2.57;;;;;;;;;;5036300;28;20986;-60
2023/10/31 04:04:20;;;;;;;3.27;2.50;;;;;;;;;;5041745;28;20542;-59
2023/10/31 04:06:45;;;;;;;5.50;2.80;;;;;;;;;;5024537;28;20076;-59
2023/10/31 04:09:11;;;;;;;4.93;2.63;;;;;;;;;;5041322;28;20367;-59
2023/10/31 04:11:36;;;;;;;4.75;2.67;;;;;;;;;;5043219;28;20068;-60
2023/10/31 04:14:03;;;;;;;4.13;2.30;;;;;;;;;;5042302;28;20033;-60
2023/10/31 04:16:28;;;;;;;4.85;2.47;;;;;;;;;;5042719;28;20294;-59
2023/10/31 04:18:53;;;;;;;5.05;2.80;;;;;;;;;;5027736;28;20366;-58
2023/10/31 04:21:18;;;;;;;3.87;2.70;;;;;;;;;;5043871;28;20060;-59
2023/10/31 04:23:44;;;;;;;4.57;2.90;;;;;;;;;;5041644;28;20299;-58
2023/10/31 04:26:09;;;;;;;3.95;2.60;;;;;;;;;;5024528;28;20749;-59
2023/10/31 04:28:34;;;;;;;3.50;2.60;;;;;;;;;;5041969;28;20045;-58
2023/10/31 04:30:59;;;;;;;5.33;3.03;;;;;;;;;;5043290;28;20378;-57
2023/10/31 04:33:24;;;;;;;5.50;2.77;;;;;;;;;;5030838;28;20803;-57
2023/10/31 04:35:50;;;;;;;4.73;3.07;;;;;;;;;;5033501;28;20540;-56
2023/10/31 04:38:15;;;;;;;6.40;3.10;;;;;;;;;;5017271;28;20668;-60
2023/10/31 04:40:40;;;;;;;4.60;2.37;;;;;;;;;;5042669;28;20955;-56
2023/10/31 04:43:05;;;;;;;4.30;2.72;;;;;;;;;;5030072;28;20337;-56
2023/10/31 04:45:31;;;;;;;5.17;3.17;;;;;;;;;;5021379;28;20445;-57
2023/10/31 04:47:56;;;;;;;6.22;2.90;;;;;;;;;;5022808;28;20311;-58
2023/10/31 04:50:21;;;;;;;3.70;2.90;;;;;;;;;;5021616;28;20041;-59
2023/10/31 04:52:47;;;;;;;6.43;2.95;;;;;;;;;;5024081;28;20386;-61
2023/10/31 04:55:12;;;;;;;5.53;3.15;;;;;;;;;;5024660;28;20540;-58
2023/10/31 04:57:37;;;;;;;4.10;2.83;;;;;;;;;;5024212;28;20028;-57
2023/10/31 05:00:06;;;;;;;5.72;2.83;;;;;;;;;;5023635;28;20350;-59
2023/10/31 05:02:31;;;;;;;5.63;3.00;;;;;;;;;;5023853;28;20032;-58
2023/10/31 05:04:57;;;;;;;5.43;2.53;;;;;;;;;;5010974;28;20025;-57
2023/10/31 05:07:23;;;;;;;6.57;3.10;;;;;;;;;;5025591;28;20333;-60
2023/10/31 05:09:48;;;;;;;4.70;2.95;;;;;;;;;;5031528;28;20040;-58
2023/10/31 05:12:14;;;;;;;4.77;3.20;;;;;;;;;;5026116;28;20416;-57
2023/10/31 05:14:39;;;;;;;5.43;3.00;;;;;;;;;;5024020;28;20341;-58
2023/10/31 05:17:05;;;;;;;8.27;3.60;;;;;;;;;;5029523;28;20275;-57
2023/10/31 05:19:30;;;;;;;5.93;3.10;;;;;;;;;;5030052;28;20117;-58
2023/10/31 05:21:55;;;;;;;4.67;2.70;;;;;;;;;;5017823;28;20455;-57
2023/10/31 05:24:20;;;;;;;4.70;2.90;;;;;;;;;;5015714;28;20280;-57
2023/10/31 05:26:46;;;;;;;5.75;3.13;;;;;;;;;;5027753;28;20025;-59
2023/10/31 05:29:11;;;;;;;7.15;3.22;;;;;;;;;;5013792;28;20036;-58
2023/10/31 05:31:36;;;;;;;5.90;2.92;;;;;;;;;;5023910;28;20037;-58
2023/10/31 05:34:03;;;;;;;5.32;2.90;;;;;;;;;;5026995;28;20048;-57
2023/10/31 05:36:28;;;;;;;6.20;3.30;;;;;;;;;;5027302;28;20080;-58
2023/10/31 05:38:54;;;;;;;5.93;3.30;;;;;;;;;;5027434;28;20033;-59
2023/10/31 05:41:19;;;;;;;4.67;3.07;;;;;;;;;;5037431;28;20021;-61
2023/10/31 05:43:44;;;;;;;6.82;3.30;;;;;;;;;;5028777;28;20342;-59
2023/10/31 05:46:10;;;;;;;6.97;3.60;;;;;;;;;;5025976;28;20036;-57
2023/10/31 05:48:37;;;;;;;7.15;3.40;;;;;;;;;;5023358;28;20032;-60
2023/10/31 05:51:02;;;;;;;4.97;3.38;;;;;;;;;;5025051;28;20041;-59
2023/10/31 05:53:28;;;;;;;5.43;3.25;;;;;;;;;;5026951;28;20587;-57
2023/10/31 05:55:53;;;;;;;7.07;3.63;;;;;;;;;;5029596;28;20099;-59
2023/10/31 05:58:18;;;;;;;6.00;3.23;;;;;;;;;;5023444;28;20287;-58
2023/10/31 06:00:44;;;;;;;5.90;3.30;;;;;;;;;;5033730;28;20287;-59
2023/10/31 06:03:09;;;;;;;6.20;3.70;;;;;;;;;;5031035;28;20048;-57
2023/10/31 06:05:34;;;;;;;5.80;3.23;;;;;;;;;;5037064;28;20041;-57
2023/10/31 06:08:00;;;;;;;8.25;3.70;;;;;;;;;;5030703;28;21239;-57
2023/10/31 06:10:25;;;;;;;5.33;3.30;;;;;;;;;;5032461;28;20068;-68
2023/10/31 06:12:50;;;;;;;8.40;3.63;;;;;;;;;;5022997;28;20279;-56
2023/10/31 06:15:15;;;;;;;6.68;3.90;;;;;;;;;;5030389;28;20818;-56
2023/10/31 06:17:41;;;;;;;6.73;3.80;;;;;;;;;;5032240;28;20385;-57
2023/10/31 06:20:09;;;;;;;7.75;4.05;;;;;;;;;;5017657;28;20327;-58
2023/10/31 06:22:34;;;;;;;8.02;4.10;;;;;;;;;;5025192;28;20049;-57
2023/10/31 06:24:59;;;;;;;6.10;3.83;;;;;;;;;;5029588;28;20386;-56
2023/10/31 06:27:25;;;;;;;6.37;3.90;;;;;;;;;;5028532;28;20386;-56
2023/10/31 06:29:50;;;;;;;7.00;4.10;;;;;;;;;;5027482;28;20459;-59
2023/10/31 06:32:15;;;;;;;6.00;3.67;;;;;;;;;;5015641;28;20305;-58
2023/10/31 06:34:40;;;;;;;7.17;3.97;;;;;;;;;;5031548;28;20043;-56
2023/10/31 06:37:06;;;;;;;8.50;4.00;;;;;;;;;;5034568;28;20275;-56
2023/10/31 06:39:32;;;;;;;9.13;4.00;;;;;;;;;;5030972;28;20167;-55
2023/10/31 06:41:57;;;;;;;6.65;4.10;;;;;;;;;;5029860;28;20390;-57
2023/10/31 06:44:23;;;;;;;10.30;4.30;;;;;;;;;;5025505;28;20106;-57
2023/10/31 06:46:48;;;;;;;9.30;4.63;;;;;;;;;;5017366;28;21059;-57
2023/10/31 06:49:13;;;;;;;7.07;4.00;;;;;;;;;;5025878;28;20098;-56
2023/10/31 06:51:38;;;;;;;7.53;4.33;;;;;;;;;;5030513;28;20091;-57
2023/10/31 06:54:04;;;;;;;6.40;3.70;;;;;;;;;;5033684;28;20798;-57
2023/10/31 06:56:29;;;;;;;6.95;4.55;;;;;;;;;;5025697;28;20029;-57
2023/10/31 06:58:54;;;;;;;8.18;4.25;;;;;;;;;;5024783;28;20085;-55
2023/10/31 07:01:20;;;;;;;5.90;4.00;;;;;;;;;;5026505;28;20047;-56
2023/10/31 07:03:45;;;;;;;7.93;4.18;;;;;;;;;;5025947;28;20413;-55
2023/10/31 07:06:10;;;;;;;9.50;4.50;;;;;;;;;;5031980;28;20036;-56
2023/10/31 07:08:35;;;;;;;8.55;4.28;;;;;;;;;;5027156;28;20037;-56
2023/10/31 07:11:01;;;;;;;7.75;4.57;;;;;;;;;;5020415;28;20033;-57
2023/10/31 07:13:26;;;;;;;9.57;4.67;;;;;;;;;;5025977;28;20041;-56
2023/10/31 07:15:51;;;;;;;10.50;4.70;;;;;;;;;;5012578;28;20711;-58
2023/10/31 07:18:16;;;;;;;6.83;3.90;;;;;;;;;;5032703;28;20394;-55
2023/10/31 07:20:42;;;;;;;10.00;4.77;;;;;;;;;;5033739;28;20294;-57
2023/10/31 07:23:07;;;;;;;7.40;4.40;;;;;;;;;;5029186;28;20029;-56
2023/10/31 07:25:32;;;;;;;12.05;5.20;;;;;;;;;;5027661;28;20131;-57
2023/10/31 07:27:57;;;;;;;8.52;4.68;;;;;;;;;;5016195;28;20532;-57
2023/10/31 07:30:22;;;;;;;7.53;4.50;;;;;;;;;;5007618;28;20076;-57
2023/10/31 07:32:48;;;;;;;8.00;4.23;;;;;;;;;;5011694;28;20295;-56
2023/10/31 07:35:13;;;;;;;9.07;4.07;;;;;;;;;;5010015;28;20281;-57
2023/10/31 07:37:38;;;;;;;9.33;4.53;;;;;;;;;;5013153;28;20041;-57
2023/10/31 07:40:04;;;;;;;9.87;4.57;;;;;;;;;;5014845;28;20055;-56
2023/10/31 07:42:29;;;;;;;8.05;4.22;;;;;;;;;;5011464;28;20708;-57
2023/10/31 07:44:54;;;;;;;7.88;4.43;;;;;;;;;;5013420;28;20505;-56
2023/10/31 07:47:19;;;;;;;7.70;4.20;;;;;;;;;;5010954;28;20030;-58
2023/10/31 07:49:45;;;;;;;7.88;4.10;;;;;;;;;;5011654;28;20272;-55
2023/10/31 07:52:10;;;;;;;8.70;4.60;;;;;;;;;;5009871;28;20064;-57
2023/10/31 07:54:38;;;;;;;9.93;4.40;;;;;;;;;;5012476;28;20052;-57
2023/10/31 07:57:04;;;;;;;8.57;4.07;;;;;;;;;;5012721;28;20275;-55
2023/10/31 07:59:29;;;;;;;8.38;4.20;;;;;;;;;;5009218;28;20041;-55
2023/10/31 08:01:55;;;;;;;7.65;4.50;;;;;;;;;;5008951;28;20037;-55
2023/10/31 08:04:20;;;;;;;6.60;4.33;;;;;;;;;;5009287;28;20026;-56
2023/10/31 08:06:45;;;;;;;7.50;4.30;;;;;;;;;;5014410;28;20327;-56
2023/10/31 08:09:11;;;;;;;8.10;4.57;;;;;;;;;;5012511;28;20148;-55
2023/10/31 08:11:36;;;;;;;7.95;4.15;;;;;;;;;;5010744;28;20048;-57
2023/10/31 08:14:02;;;;;;;9.63;4.38;;;;;;;;;;5014186;28;20099;-57
2023/10/31 08:16:28;;;;;;;7.53;4.32;;;;;;;;;;5033194;28;20100;-58
2023/10/31 08:18:53;;;;;;;8.77;4.45;;;;;;;;;;5028651;28;20429;-56
2023/10/31 08:21:18;;;;;;;7.70;4.50;;;;;;;;;;5033380;28;20134;-55
2023/10/31 08:23:46;;;;;;;7.68;4.22;;;;;;;;;;5031010;28;22231;-55
2023/10/31 08:26:12;;;;;;;5.53;3.35;;;;;;;;;;5029955;28;20044;-56
2023/10/31 08:28:37;;;;;;;6.85;4.22;;;;;;;;;;5030133;28;20045;-56
2023/10/31 08:31:03;;;;;;;7.83;4.47;;;;;;;;;;5017063;28;20485;-56
2023/10/31 08:33:29;;;;;;;6.28;3.92;;;;;;;;;;5028475;28;20040;-56
2023/10/31 08:35:54;;;;;;;7.63;4.93;;;;;;;;;;5016560;28;20104;-56
2023/10/31 08:38:19;;;;;;;7.25;3.97;;;;;;;;;;5041715;28;20048;-58
2023/10/31 08:40:45;;;;;;;7.37;3.97;;;;;;;;;;5041036;28;20041;-57
2023/10/31 08:43:10;;;;;;;7.53;4.10;;;;;;;;;;5041901;28;20409;-57
2023/10/31 08:45:35;;;;;;;7.82;3.90;;;;;;;;;;5042947;28;20354;-57
2023/10/31 08:48:00;;;;;;;8.07;4.03;;;;;;;;;;5042516;28;20025;-56
2023/10/31 08:50:26;;;;;;;8.07;4.25;;;;;;;;;;5042280;28;20068;-57
2023/10/31 08:52:51;;;;;;;7.72;4.13;;;;;;;;;;5041634;28;20043;-57
2023/10/31 08:55:16;;;;;;;6.77;4.00;;;;;;;;;;5043552;28;20024;-57
2023/10/31 08:57:41;;;;;;;6.68;4.00;;;;;;;;;;5041795;28;20302;-57
2023/10/31 09:00:07;;;;;;;6.93;4.20;;;;;;;;;;5026032;28;20496;-57
2023/10/31 09:02:33;;;;;;;7.68;3.95;;;;;;;;;;5042802;28;20279;-57
2023/10/31 09:04:59;;;;;;;7.80;3.88;;;;;;;;;;5043451;28;20124;-58
2023/10/31 09:07:24;;;;;;;7.77;3.90;;;;;;;;;;5041038;28;20116;-57
2023/10/31 09:09:49;;;;;;;5.90;3.50;;;;;;;;;;5042720;28;20287;-57
2023/10/31 09:12:14;;;;;;;6.03;3.60;;;;;;;;;;5042243;28;20799;-57
2023/10/31 09:14:41;;;;;;;6.30;3.73;;;;;;;;;;5043841;28;20375;-56
2023/10/31 09:17:07;;;;;;;10.73;4.35;;;;;;;;;;5042758;28;20359;-61
2023/10/31 09:19:32;;;;;;;6.80;3.63;;;;;;;;;;5042240;28;20135;-57
2023/10/31 09:21:57;;;;;;;6.17;3.50;;;;;;;;;;5041555;28;20124;-58
2023/10/31 09:24:23;;;;;;;7.60;3.97;;;;;;;;;;5043207;28;20787;-58
2023/10/31 09:26:49;;;;;;;6.45;3.65;;;;;;;;;;5042224;28;20152;-56
2023/10/31 09:29:14;;;;;;;7.10;3.65;;;;;;;;;;5043047;28;20235;-57
2023/10/31 09:31:39;;;;;;;6.60;3.80;;;;;;;;;;5022805;28;20528;-56
2023/10/31 09:34:04;;;;;;;5.90;3.63;;;;;;;;;;5042680;28;20279;-56
2023/10/31 09:36:34;;;;;;;6.93;3.57;;;;;;;;;;5027685;28;20059;-56
2023/10/31 09:38:59;;;;;;;4.68;3.17;;;;;;;;;;5046032;28;20303;-58
2023/10/31 09:41:25;;;;;;;8.30;3.60;;;;;;;;;;5045842;28;20058;-57
2023/10/31 09:43:50;;;;;;;6.22;3.60;;;;;;;;;;5046859;28;20318;-57
2023/10/31 09:46:15;;;;;;;5.80;3.27;;;;;;;;;;5046673;28;20357;-57
2023/10/31 09:48:41;;;;;;;5.60;3.00;;;;;;;;;;5043591;28;20276;-57
2023/10/31 09:51:06;;;;;;;5.88;3.45;;;;;;;;;;5034983;28;20049;-58
2023/10/31 09:53:32;;;;;;;6.27;3.47;;;;;;;;;;5024326;28;20041;-58
2023/10/31 09:55:57;;;;;;;7.20;3.42;;;;;;;;;;5024702;28;20311;-57
2023/10/31 09:58:22;;;;;;;6.47;3.28;;;;;;;;;;5022785;28;20052;-55
2023/10/31 10:00:48;;;;;;;5.15;3.17;;;;;;;;;;5024481;28;20421;-56
2023/10/31 10:03:13;;;;;;;6.20;3.75;;;;;;;;;;5023606;28;20369;-56
2023/10/31 10:05:38;;;;;;;6.78;3.53;;;;;;;;;;5025200;28;20034;-56
2023/10/31 10:08:04;;;;;;;6.72;3.35;;;;;;;;;;5024761;28;20033;-57
2023/10/31 10:10:31;;;;;;;7.95;3.63;;;;;;;;;;5025092;28;20095;-58
2023/10/31 10:12:56;;;;;;;6.10;3.10;;;;;;;;;;5024617;28;20037;-55
2023/10/31 10:15:22;;;;;;;6.68;3.30;;;;;;;;;;5025140;28;20060;-56
2023/10/31 10:17:53;;;;;;;6.40;3.43;;;;;;;;;;5024967;28;20511;-57
2023/10/31 10:20:18;;;;;;;6.60;3.35;;;;;;;;;;5024740;28;20315;-56
2023/10/31 10:22:44;;;;;;;11.60;3.70;;;;;;;;;;5026099;28;20038;-57
2023/10/31 10:25:11;;;;;;;6.45;3.40;;;;;;;;;;5025032;28;20375;-57
2023/10/31 10:27:36;;;;;;;9.57;3.60;;;;;;;;;;5024136;28;20044;-57
2023/10/31 10:30:03;;;;;;;7.20;3.20;;;;;;;;;;5024534;28;20082;-56
2023/10/31 10:32:28;;;;;;;6.63;3.10;;;;;;;;;;5024413;28;20850;-58
2023/10/31 10:34:54;;;;;;;6.75;3.13;;;;;;;;;;5025315;28;20065;-56
2023/10/31 10:37:19;;;;;;;6.07;3.40;;;;;;;;;;5022975;28;20055;-61
2023/10/31 10:39:47;;;;;;;6.15;3.03;;;;;;;;;;5023308;28;20076;-55
2023/10/31 10:42:12;;;;;;;6.20;3.38;;;;;;;;;;5024473;28;20434;-57
2023/10/31 10:44:38;;;;;;;5.30;3.10;;;;;;;;;;5023036;28;20041;-56
2023/10/31 10:47:04;;;;;;;6.18;3.40;;;;;;;;;;4997227;28;20052;-55
2023/10/31 10:49:32;;;;;;;6.30;3.10;;;;;;;;;;5024586;28;20106;-57
2023/10/31 10:52:02;;;;;;;8.10;3.35;;;;;;;;;;5024456;28;20036;-56
2023/10/31 10:54:30;;;;;;;6.15;3.17;;;;;;;;;;5024223;28;20512;-56
2023/10/31 10:56:59;;;;;;;8.52;3.35;;;;;;;;;;5023416;28;20579;-57
2023/10/31 10:59:29;;;;;;;5.82;3.25;;;;;;;;;;5024104;28;20161;-57
2023/10/31 11:01:54;;;;;;;7.15;3.40;;;;;;;;;;5022946;28;20053;-57
2023/10/31 11:04:20;;;;;;;4.65;3.10;;;;;;;;;;5024643;28;20036;-56
2023/10/31 11:06:46;;;;;;;6.45;3.28;;;;;;;;;;5024401;28;20094;-57
2023/10/31 11:09:11;;;;;;;6.07;3.03;;;;;;;;;;5009174;28;20097;-56
2023/10/31 11:11:37;;;;;;;5.90;2.83;;;;;;;;;;5023714;28;20041;-58
2023/10/31 11:14:02;;;;;;;6.13;3.00;;;;;;;;;;5023395;28;20122;-57
2023/10/31 11:16:36;;;;;;;6.75;3.33;;;;;;;;;;5022223;28;20501;-56
2023/10/31 11:19:01;;;;;;;4.70;2.83;;;;;;;;;;5020968;28;20126;-57
2023/10/31 11:21:31;;;;;;;6.57;2.80;;;;;;;;;;5024192;28;20493;-58
2023/10/31 11:23:59;;;;;;;6.35;2.80;;;;;;;;;;5021506;28;20307;-56
2023/10/31 11:26:29;;;;;;;4.13;2.65;;;;;;;;;;5024315;28;20444;-56
2023/10/31 11:29:07;;;;;;;6.80;3.20;;;;;;;;;;5007929;28;20044;-58
2023/10/31 11:31:35;;;;;;;6.70;3.10;;;;;;;;;;5022102;28;20041;-58
2023/10/31 11:34:01;;;;;;;5.55;2.60;;;;;;;;;;5022476;28;20046;-56
2023/10/31 11:36:26;;;;;;;6.45;3.28;;;;;;;;;;5024890;28;20053;-59
2023/10/31 11:38:51;;;;;;;5.05;2.88;;;;;;;;;;5010482;28;20041;-58
2023/10/31 11:41:17;;;;;;;7.13;2.72;;;;;;;;;;5022329;28;20057;-57
2023/10/31 11:43:42;;;;;;;7.57;2.93;;;;;;;;;;5012652;28;20017;-56
2023/10/31 11:46:20;;;;;;;7.45;2.72;;;;;;;;;;5023916;28;20013;-56
2023/10/31 11:48:47;;;;;;;4.22;2.63;;;;;;;;;;5023201;28;20048;-56
2023/10/31 11:51:12;;;;;;;5.63;2.67;;;;;;;;;;5024924;28;20021;-57
2023/10/31 11:53:38;;;;;;;5.50;2.53;;;;;;;;;;5023294;28;20083;-57
2023/10/31 11:56:03;;;;;;;5.57;3.00;;;;;;;;;;5023805;28;20036;-58
2023/10/31 11:58:30;;;;;;;5.43;2.80;;;;;;;;;;5011789;28;20052;-58
2023/10/31 12:01:03;;;;;;;4.55;2.40;;;;;;;;;;5011787;28;20048;-56
2023/10/31 12:03:28;;;;;;;7.93;2.50;;;;;;;;;;5022270;28;20106;-55
2023/10/31 12:05:57;;;;;;;4.80;2.47;;;;;;;;;;5024594;28;20037;-56
2023/10/31 12:08:26;;;;;;;6.53;2.30;;;;;;;;;;5023351;28;20063;-55
2023/10/31 12:10:51;;;;;;;4.10;2.33;;;;;;;;;;5023211;28;20049;-55
2023/10/31 12:13:16;;;;;;;4.10;2.30;;;;;;;;;;5025013;28;20388;-57
2023/10/31 12:15:51;;;;;;;6.68;2.53;;;;;;;;;;5023813;28;20287;-58
2023/10/31 12:18:17;;;;;;;3.97;2.20;;;;;;;;;;5008256;28;20497;-57
2023/10/31 12:20:49;;;;;;;4.57;2.20;;;;;;;;;;5022926;28;20044;-57
2023/10/31 12:23:14;;;;;;;6.32;2.50;;;;;;;;;;5008613;28;20102;-57
2023/10/31 12:25:49;;;;;;;4.05;2.50;;;;;;;;;;5021721;28;20049;-56
2023/10/31 12:28:18;;;;;;;5.40;2.30;;;;;;;;;;5021103;28;20555;-57
2023/10/31 12:30:47;;;;;;;3.80;2.20;;;;;;;;;;5023364;28;20512;-55
2023/10/31 12:33:12;;;;;;;5.60;2.42;;;;;;;;;;5022121;28;20063;-58
2023/10/31 12:35:38;;;;;;;3.10;2.08;;;;;;;;;;5022056;28;20591;-56
2023/10/31 12:38:03;;;;;;;5.32;2.22;;;;;;;;;;5022069;28;20454;-56
2023/10/31 12:40:28;;;;;;;5.33;2.20;;;;;;;;;;5022122;28;20103;-57
2023/10/31 12:42:53;;;;;;;5.07;2.30;;;;;;;;;;5022534;28;20288;-56
2023/10/31 12:45:19;;;;;;;4.18;2.20;;;;;;;;;;5022679;28;20041;-55
2023/10/31 12:47:44;;;;;;;4.35;2.28;;;;;;;;;;5022262;28;20421;-56
2023/10/31 12:50:12;;;;;;;3.87;2.30;;;;;;;;;;5022393;28;20025;-56
2023/10/31 12:52:46;;;;;;;5.20;2.42;;;;;;;;;;5021686;28;20873;-56
2023/10/31 12:55:15;;;;;;;4.38;2.42;;;;;;;;;;5021980;28;20780;-56
2023/10/31 12:57:40;;;;;;;4.30;2.20;;;;;;;;;;5022719;28;20040;-55
2023/10/31 13:00:09;;;;;;;5.25;2.00;;;;;;;;;;5022997;28;20584;-58
2023/10/31 13:02:34;;;;;;;3.50;2.20;;;;;;;;;;5023587;28;20124;-56
2023/10/31 13:05:12;;;;;;;4.73;2.47;;;;;;;;;;5024407;28;20185;-57
2023/10/31 13:07:37;;;;;;;5.57;2.30;;;;;;;;;;5022543;28;20299;-57
2023/10/31 13:10:04;;;;;;;5.65;2.22;;;;;;;;;;5024021;28;20048;-56
2023/10/31 13:12:30;;;;;;;4.85;1.98;;;;;;;;;;5006932;28;20452;-54
2023/10/31 13:14:55;;;;;;;4.55;2.55;;;;;;;;;;5011441;28;20111;-57
2023/10/31 13:17:20;;;;;;;3.53;2.27;;;;;;;;;;5023657;28;20558;-55
2023/10/31 13:19:45;;;;;;;5.67;2.23;;;;;;;;;;5022126;28;20087;-55
2023/10/31 13:22:11;;;;;;;4.00;2.20;;;;;;;;;;5023108;28;20059;-57
2023/10/31 13:24:36;;;;;;;3.23;1.90;;;;;;;;;;5008266;28;20291;-57
2023/10/31 13:27:02;;;;;;;4.85;2.30;;;;;;;;;;5010579;28;20068;-56
2023/10/31 13:29:28;;;;;;;4.85;2.10;;;;;;;;;;5023052;28;20052;-56
2023/10/31 13:31:53;;;;;;;5.40;2.30;;;;;;;;;;5023268;28;20512;-56
2023/10/31 13:34:18;;;;;;;5.22;2.00;;;;;;;;;;5011143;28;20108;-55
2023/10/31 13:36:44;;;;;;;3.47;2.10;;;;;;;;;;5007972;28;20576;-55
2023/10/31 13:39:09;;;;;;;3.35;1.90;;;;;;;;;;5024306;28;20555;-57
2023/10/31 13:41:34;;;;;;;4.50;2.33;;;;;;;;;;5009185;28;20029;-56
2023/10/31 13:44:00;;;;;;;4.30;2.20;;;;;;;;;;5007932;28;20040;-56
2023/10/31 13:46:25;;;;;;;4.47;2.23;;;;;;;;;;5023651;28;20164;-55
2023/10/31 13:48:50;;;;;;;4.72;2.22;;;;;;;;;;5024013;28;20284;-56
2023/10/31 13:51:19;;;;;;;3.50;1.90;;;;;;;;;;5012718;28;20057;-55
2023/10/31 13:53:44;;;;;;;4.25;2.20;;;;;;;;;;5025307;28;20646;-58
2023/10/31 13:56:09;;;;;;;4.78;2.10;;;;;;;;;;5022316;28;20113;-57
2023/10/31 13:58:35;;;;;;;3.27;2.20;;;;;;;;;;5011434;28;20425;-57
2023/10/31 14:01:00;;;;;;;3.70;2.10;;;;;;;;;;5025907;28;20288;-56
2023/10/31 14:03:26;;;;;;;3.15;2.00;;;;;;;;;;5026091;28;20033;-60
2023/10/31 14:05:51;;;;;;;4.77;2.27;;;;;;;;;;5025260;28;20167;-57
2023/10/31 14:08:16;;;;;;;3.90;2.10;;;;;;;;;;5023958;28;20286;-55
2023/10/31 14:10:45;;;;;;;4.00;2.03;;;;;;;;;;5026099;28;20059;-57
2023/10/31 14:13:10;;;;;;;5.15;2.20;;;;;;;;;;5024542;28;20424;-57
2023/10/31 14:15:35;;;;;;;4.22;1.92;;;;;;;;;;5023722;28;20037;-55
2023/10/31 14:18:02;;;;;;;3.60;2.20;;;;;;;;;;5024186;28;20055;-56
2023/10/31 14:20:27;;;;;;;4.00;1.95;;;;;;;;;;5024125;28;20749;-57
2023/10/31 14:22:53;;;;;;;3.53;1.85;;;;;;;;;;5024302;28;20038;-57
2023/10/31 14:25:18;;;;;;;3.23;1.80;;;;;;;;;;5028856;28;20030;-56
2023/10/31 14:27:43;;;;;;;3.23;2.10;;;;;;;;;;5026266;28;20296;-56
2023/10/31 14:30:09;;;;;;;4.57;1.90;;;;;;;;;;5031062;28;20375;-55
2023/10/31 14:32:34;;;;;;;4.40;2.03;;;;;;;;;;5045075;28;20102;-57
2023/10/31 14:35:00;;;;;;;6.45;2.53;;;;;;;;;;5042908;28;20045;-58